createdAt,value
2018-08-17T00:01:15.837Z,21.50
2018-08-17T02:00:03.109Z,20.60
2018-08-17T02:22:52.679Z,19.90
2018-08-17T02:28:30.814Z,19.90
2018-08-17T02:34:10.710Z,20.00
2018-08-17T02:36:40.312Z,20.00
2018-08-17T02:39:09.772Z,20.00
2018-08-17T02:41:39.247Z,20.00
2018-08-17T02:44:08.674Z,20.00
2018-08-17T02:46:38.142Z,20.00
2018-08-17T02:49:07.561Z,20.00
2018-08-17T02:51:36.960Z,20.00
2018-08-17T02:54:06.658Z,20.00
2018-08-17T02:56:36.152Z,20.00
2018-08-17T02:59:05.681Z,19.90
2018-08-17T03:01:35.420Z,19.90
2018-08-17T03:04:04.983Z,19.90
2018-08-17T03:06:34.384Z,19.90
2018-08-17T03:09:04.291Z,19.90
2018-08-17T03:11:33.675Z,19.90
2018-08-17T03:14:03.672Z,20.00
2018-08-17T03:16:33.112Z,19.90
2018-08-17T03:19:02.862Z,19.90
2018-08-17T03:21:32.418Z,19.90
2018-08-17T03:24:01.954Z,19.90
2018-08-17T03:26:31.449Z,19.80
2018-08-17T03:29:00.981Z,19.80
2018-08-17T03:31:30.598Z,19.80
2018-08-17T03:34:02.271Z,19.80
2018-08-17T03:36:31.738Z,19.80
2018-08-17T03:39:01.346Z,19.80
2018-08-17T03:41:31.053Z,19.70
2018-08-17T03:44:00.566Z,19.70
2018-08-17T03:46:30.040Z,19.70
2018-08-17T03:48:59.758Z,19.70
2018-08-17T03:51:29.362Z,19.70
2018-08-17T03:53:58.930Z,19.60
2018-08-17T03:56:28.352Z,19.60
2018-08-17T03:58:57.836Z,19.60
2018-08-17T04:01:27.356Z,19.60
2018-08-17T04:03:56.831Z,19.60
2018-08-17T04:06:26.263Z,19.60
2018-08-17T04:08:55.804Z,19.60
2018-08-17T04:11:25.277Z,19.60
2018-08-17T04:13:54.862Z,19.60
2018-08-17T04:16:24.283Z,19.60
2018-08-17T04:18:57.806Z,19.60
2018-08-17T04:21:27.990Z,19.60
2018-08-17T04:23:57.520Z,19.60
2018-08-17T04:26:26.971Z,19.60
2018-08-17T04:28:56.571Z,19.50
2018-08-17T04:31:26.060Z,19.50
2018-08-17T04:33:55.597Z,19.50
2018-08-17T04:36:25.013Z,19.50
2018-08-17T04:38:54.551Z,19.50
2018-08-17T04:41:23.976Z,19.50
2018-08-17T04:43:53.310Z,19.50
2018-08-17T04:46:23.504Z,19.50
2018-08-17T04:48:52.895Z,19.60
2018-08-17T04:51:22.408Z,19.60
2018-08-17T04:53:52.022Z,19.60
2018-08-17T04:56:21.561Z,19.60
2018-08-17T04:58:51.225Z,19.60
2018-08-17T05:01:20.977Z,19.60
2018-08-17T05:03:50.583Z,19.70
2018-08-17T05:06:20.112Z,19.70
2018-08-17T05:08:49.517Z,19.70
2018-08-17T05:11:20.371Z,19.80
2018-08-17T05:13:49.907Z,19.90
2018-08-17T05:16:19.471Z,20.00
2018-08-17T05:18:48.985Z,20.00
2018-08-17T05:21:18.632Z,20.10
2018-08-17T05:23:48.251Z,20.20
2018-08-17T05:26:17.689Z,20.30
2018-08-17T05:28:47.334Z,20.40
2018-08-17T05:31:17.130Z,20.60
2018-08-17T05:33:46.994Z,20.80
2018-08-17T05:36:19.121Z,20.90
2018-08-17T05:38:48.716Z,21.00
2018-08-17T05:41:18.480Z,21.20
2018-08-17T05:43:48.381Z,21.30
2018-08-17T05:46:17.979Z,21.50
2018-08-17T05:48:47.560Z,21.60
2018-08-17T05:51:18.750Z,21.70
2018-08-17T05:53:49.431Z,21.90
2018-08-17T05:56:19.013Z,22.20
2018-08-17T05:58:49.300Z,22.50
2018-08-17T06:01:19.516Z,22.60
2018-08-17T06:03:50.213Z,22.60
2018-08-17T06:06:19.705Z,22.70
2018-08-17T06:08:49.241Z,22.70
2018-08-17T06:11:18.939Z,22.70
2018-08-17T06:13:48.411Z,22.70
2018-08-17T06:16:17.921Z,22.60
2018-08-17T06:18:47.527Z,22.60
2018-08-17T06:21:17.349Z,22.60
2018-08-17T06:23:46.870Z,22.70
2018-08-17T06:26:16.328Z,22.70
2018-08-17T06:28:45.795Z,22.80
2018-08-17T06:31:16.592Z,22.90
2018-08-17T06:33:46.152Z,23.10
2018-08-17T06:36:16.958Z,23.30
2018-08-17T06:38:46.862Z,23.40
2018-08-17T06:41:16.952Z,23.60
2018-08-17T06:43:47.256Z,23.70
2018-08-17T06:46:20.670Z,24.00
2018-08-17T06:48:50.717Z,24.20
2018-08-17T06:51:20.725Z,24.40
2018-08-17T06:53:50.877Z,24.60
2018-08-17T06:56:20.948Z,24.70
2018-08-17T06:58:50.787Z,24.90
2018-08-17T07:01:20.916Z,25.10
2018-08-17T07:03:50.956Z,25.30
2018-08-17T07:06:21.124Z,25.50
2018-08-17T07:08:51.646Z,25.80
2018-08-17T07:11:21.601Z,26.10
2018-08-17T07:13:51.818Z,26.50
2018-08-17T07:16:21.921Z,26.70
2018-08-17T07:18:56.397Z,26.90
2018-08-17T07:21:26.125Z,27.00
2018-08-17T07:24:05.099Z,27.20
2018-08-17T07:26:38.734Z,27.40
2018-08-17T07:30:00.507Z,27.70
2018-08-17T07:32:30.792Z,27.70
2018-08-17T07:35:00.733Z,27.80
2018-08-17T07:37:30.366Z,27.80
2018-08-17T07:40:00.016Z,27.70
2018-08-17T07:42:29.511Z,27.70
2018-08-17T07:44:59.284Z,27.60
2018-08-17T07:47:29.926Z,27.60
2018-08-17T07:50:01.075Z,27.50
2018-08-17T07:52:32.081Z,27.40
2018-08-17T07:55:02.058Z,27.40
2018-08-17T07:57:31.972Z,27.40
2018-08-17T08:00:01.675Z,27.40
2018-08-17T08:02:31.217Z,27.40
2018-08-17T08:05:00.888Z,27.40
2018-08-17T08:07:31.631Z,27.40
2018-08-17T08:10:01.447Z,27.50
2018-08-17T08:12:32.198Z,27.50
2018-08-17T08:15:02.818Z,27.50
2018-08-17T08:17:33.075Z,27.60
2018-08-17T08:20:20.769Z,27.60
2018-08-17T08:23:00.322Z,27.60
2018-08-17T08:25:29.706Z,27.50
2018-08-17T08:27:59.160Z,27.50
2018-08-17T08:30:28.509Z,27.50
2018-08-17T08:32:57.176Z,27.60
2018-08-17T08:35:26.587Z,27.60
2018-08-17T08:37:56.014Z,27.70
2018-08-17T08:40:25.512Z,27.60
2018-08-17T08:42:54.989Z,27.60
2018-08-17T08:45:24.476Z,27.60
2018-08-17T08:47:53.936Z,27.70
2018-08-17T08:50:23.438Z,27.70
2018-08-17T08:52:52.871Z,27.60
2018-08-17T08:55:22.316Z,27.70
2018-08-17T08:57:51.811Z,27.60
2018-08-17T09:00:21.479Z,27.40
2018-08-17T09:02:51.150Z,27.50
2018-08-17T09:05:20.639Z,27.50
2018-08-17T09:07:50.067Z,27.50
2018-08-17T09:10:19.575Z,27.50
2018-08-17T09:12:48.977Z,27.60
2018-08-17T09:15:18.386Z,27.80
2018-08-17T09:17:47.788Z,27.80
2018-08-17T09:20:17.760Z,27.80
2018-08-17T09:22:47.948Z,27.80
2018-08-17T09:25:17.453Z,27.90
2018-08-17T09:27:46.917Z,28.00
2018-08-17T09:30:16.371Z,28.00
2018-08-17T09:32:45.715Z,28.10
2018-08-17T09:35:15.079Z,28.20
2018-08-17T09:37:44.504Z,28.20
2018-08-17T09:40:13.932Z,28.30
2018-08-17T09:42:43.418Z,28.40
2018-08-17T09:45:13.849Z,28.50
2018-08-17T09:47:43.243Z,28.40
2018-08-17T09:50:14.968Z,28.40
2018-08-17T09:52:44.415Z,28.50
2018-08-17T09:55:14.485Z,28.50
2018-08-17T09:57:43.971Z,28.50
2018-08-17T10:00:13.433Z,28.50
2018-08-17T10:02:47.979Z,28.50
2018-08-17T10:05:22.665Z,28.50
2018-08-17T10:08:57.843Z,28.60
2018-08-17T10:11:27.215Z,28.60
2018-08-17T10:13:56.673Z,28.70
2018-08-17T10:16:26.027Z,28.80
2018-08-17T10:18:55.394Z,28.90
2018-08-17T10:21:25.022Z,29.00
2018-08-17T10:23:54.188Z,29.10
2018-08-17T10:26:23.921Z,29.10
2018-08-17T10:28:53.353Z,29.10
2018-08-17T10:31:22.766Z,29.10
2018-08-17T10:33:52.300Z,29.10
2018-08-17T10:36:21.655Z,29.20
2018-08-17T10:38:51.153Z,29.30
2018-08-17T10:41:20.517Z,29.30
2018-08-17T10:43:49.973Z,29.40
2018-08-17T10:46:19.529Z,29.40
2018-08-17T10:48:49.040Z,29.60
2018-08-17T10:51:18.505Z,29.70
2018-08-17T10:53:48.505Z,29.80
2018-08-17T10:56:17.946Z,29.90
2018-08-17T10:58:47.465Z,29.90
2018-08-17T11:01:17.810Z,30.10
2018-08-17T11:03:47.188Z,30.10
2018-08-17T11:06:16.687Z,30.10
2018-08-17T11:08:46.134Z,30.20
2018-08-17T11:11:15.503Z,30.30
2018-08-17T11:13:44.962Z,30.30
2018-08-17T11:16:14.391Z,30.10
2018-08-17T11:18:43.773Z,30.10
2018-08-17T11:21:13.203Z,30.10
2018-08-17T11:23:42.610Z,30.20
2018-08-17T11:26:12.107Z,30.30
2018-08-17T11:28:42.408Z,30.30
2018-08-17T11:31:11.787Z,30.30
2018-08-17T11:33:41.202Z,30.40
2018-08-17T11:36:10.595Z,30.30
2018-08-17T11:38:40.075Z,30.10
2018-08-17T11:41:12.614Z,29.90
2018-08-17T11:43:43.178Z,29.90
2018-08-17T11:46:12.604Z,29.90
2018-08-17T11:48:42.331Z,29.90
2018-08-17T11:51:11.763Z,29.90
2018-08-17T11:53:41.403Z,29.90
2018-08-17T11:56:10.664Z,29.90
2018-08-17T11:58:40.025Z,29.90
2018-08-17T12:01:14.570Z,29.90
2018-08-17T12:03:43.982Z,30.00
2018-08-17T12:06:13.402Z,30.00
2018-08-17T12:08:42.918Z,30.10
2018-08-17T12:11:12.216Z,30.30
2018-08-17T12:13:42.446Z,30.50
2018-08-17T12:16:13.088Z,30.60
2018-08-17T12:18:42.562Z,30.90
2018-08-17T12:21:12.959Z,31.00
2018-08-17T12:23:42.758Z,31.10
2018-08-17T12:26:12.707Z,31.20
2018-08-17T12:28:42.611Z,31.20
2018-08-17T12:31:12.229Z,31.10
2018-08-17T12:33:41.661Z,31.10
2018-08-17T12:36:11.119Z,31.00
2018-08-17T12:38:40.565Z,31.00
2018-08-17T12:41:09.954Z,30.80
2018-08-17T12:43:40.195Z,30.70
2018-08-17T12:46:09.711Z,30.70
2018-08-17T12:48:39.266Z,30.70
2018-08-17T12:51:08.912Z,30.60
2018-08-17T12:53:38.423Z,30.60
2018-08-17T12:56:09.667Z,30.70
2018-08-17T12:58:39.073Z,30.70
2018-08-17T13:01:08.580Z,30.80
2018-08-17T13:03:37.990Z,30.90
2018-08-17T13:06:07.648Z,30.90
2018-08-17T13:08:37.100Z,31.00
2018-08-17T13:11:06.493Z,31.00
2018-08-17T13:13:35.995Z,31.10
2018-08-17T13:16:07.449Z,31.00
2018-08-17T13:18:39.085Z,31.00
2018-08-17T13:21:08.613Z,31.00
2018-08-17T13:23:38.049Z,30.90
2018-08-17T13:26:07.551Z,31.00
2018-08-17T13:28:36.936Z,30.80
2018-08-17T13:31:06.393Z,31.00
2018-08-17T13:33:36.371Z,30.90
2018-08-17T13:36:06.005Z,31.00
2018-08-17T13:38:35.437Z,31.00
2018-08-17T13:41:04.907Z,31.10
2018-08-17T13:43:34.346Z,31.10
2018-08-17T13:46:04.537Z,31.10
2018-08-17T13:48:35.026Z,31.10
2018-08-17T13:51:04.732Z,30.90
2018-08-17T13:53:34.476Z,31.00
2018-08-17T13:56:04.312Z,31.00
2018-08-17T13:58:33.983Z,31.00
2018-08-17T14:01:03.593Z,31.00
2018-08-17T14:03:34.517Z,31.00
2018-08-17T14:06:04.090Z,31.00
2018-08-17T14:08:33.537Z,31.00
2018-08-17T14:11:02.982Z,30.90
2018-08-17T14:13:32.407Z,30.90
2018-08-17T14:16:01.864Z,30.90
2018-08-17T14:18:31.360Z,30.80
2018-08-17T14:21:00.883Z,30.80
2018-08-17T14:23:30.395Z,30.90
2018-08-17T14:25:59.877Z,30.90
2018-08-17T14:28:29.365Z,30.90
2018-08-17T14:30:58.788Z,30.90
2018-08-17T14:33:28.171Z,30.90
2018-08-17T14:35:57.588Z,30.90
2018-08-17T14:38:32.935Z,30.90
2018-08-17T14:41:03.184Z,30.90
2018-08-17T14:43:33.034Z,30.90
2018-08-17T14:46:02.518Z,30.80
2018-08-17T14:48:32.273Z,30.70
2018-08-17T14:51:01.812Z,30.70
2018-08-17T14:53:31.262Z,30.70
2018-08-17T14:56:00.686Z,30.70
2018-08-17T14:58:30.130Z,30.70
2018-08-17T15:00:59.572Z,30.60
2018-08-17T15:03:29.049Z,30.50
2018-08-17T15:05:58.458Z,30.50
2018-08-17T15:08:27.939Z,30.50
2018-08-17T15:10:57.376Z,30.40
2018-08-17T15:13:26.790Z,30.40
2018-08-17T15:15:56.477Z,30.50
2018-08-17T15:18:26.033Z,30.40
2018-08-17T15:20:55.504Z,30.50
2018-08-17T15:23:25.069Z,30.50
2018-08-17T15:25:54.502Z,30.50
2018-08-17T15:28:23.889Z,30.50
2018-08-17T15:30:53.361Z,30.50
2018-08-17T15:33:22.814Z,30.60
2018-08-17T15:35:52.348Z,30.60
2018-08-17T15:38:21.743Z,30.60
2018-08-17T15:40:51.267Z,30.50
2018-08-17T15:43:20.626Z,30.50
2018-08-17T15:45:51.730Z,30.40
2018-08-17T15:48:21.066Z,30.20
2018-08-17T15:50:50.424Z,30.10
2018-08-17T15:53:20.006Z,30.10
2018-08-17T15:55:49.403Z,30.10
2018-08-17T15:58:18.935Z,30.10
2018-08-17T16:00:48.852Z,30.00
2018-08-17T16:03:18.311Z,30.00
2018-08-17T16:05:47.761Z,30.00
2018-08-17T16:08:17.173Z,30.00
2018-08-17T16:10:46.555Z,30.00
2018-08-17T16:16:34.391Z,30.00
2018-08-17T16:19:04.638Z,30.10
2018-08-17T16:21:34.783Z,30.00
2018-08-17T16:26:47.065Z,30.00
2018-08-17T16:29:16.505Z,30.00
2018-08-17T16:31:46.059Z,29.90
2018-08-17T16:34:15.630Z,29.90
2018-08-17T16:36:45.069Z,29.80
2018-08-17T16:39:15.493Z,29.60
2018-08-17T16:41:44.953Z,29.60
2018-08-17T16:44:14.925Z,29.50
2018-08-17T16:46:44.564Z,29.40
2018-08-17T16:49:13.966Z,29.40
2018-08-17T16:51:43.383Z,29.30
2018-08-17T16:54:12.949Z,29.30
2018-08-17T16:56:43.186Z,29.30
2018-08-17T16:59:12.563Z,29.30
2018-08-17T17:01:41.996Z,29.30
2018-08-17T17:04:11.388Z,29.20
2018-08-17T17:06:40.834Z,29.10
2018-08-17T17:09:10.357Z,29.10
2018-08-17T17:11:39.788Z,29.10
2018-08-17T17:14:10.075Z,29.00
2018-08-17T17:16:45.345Z,29.00
2018-08-17T17:19:18.802Z,29.00
2018-08-17T17:21:50.298Z,29.00
2018-08-17T17:24:20.242Z,29.00
2018-08-17T17:26:49.639Z,29.00
2018-08-17T17:29:19.165Z,29.00
2018-08-17T17:31:51.542Z,28.80
2018-08-17T17:34:21.734Z,28.70
2018-08-17T17:36:51.203Z,28.70
2018-08-17T17:39:20.630Z,28.60
2018-08-17T17:41:50.135Z,28.60
2018-08-17T17:44:19.532Z,28.50
2018-08-17T17:46:48.992Z,28.50
2018-08-17T17:49:18.507Z,28.40
2018-08-17T17:51:49.981Z,28.30
2018-08-17T17:54:23.504Z,28.30
2018-08-17T17:57:00.556Z,28.20
2018-08-17T17:59:30.071Z,28.20
2018-08-17T18:01:59.578Z,28.10
2018-08-17T18:04:32.108Z,28.00
2018-08-17T18:07:01.573Z,28.00
2018-08-17T18:09:30.884Z,27.90
2018-08-17T18:12:00.337Z,27.80
2018-08-17T18:14:29.786Z,27.80
2018-08-17T18:16:59.285Z,27.70
2018-08-17T18:19:28.682Z,27.60
2018-08-17T18:21:58.067Z,27.50
2018-08-17T18:24:27.443Z,27.50
2018-08-17T18:26:56.879Z,27.60
2018-08-17T18:29:26.382Z,27.50
2018-08-17T18:31:55.770Z,27.50
2018-08-17T18:34:25.192Z,27.50
2018-08-17T18:36:54.752Z,27.40
2018-08-17T18:39:24.148Z,27.40
2018-08-17T18:41:53.588Z,27.30
2018-08-17T18:44:22.975Z,27.10
2018-08-17T18:46:52.522Z,27.00
2018-08-17T18:49:22.047Z,27.00
2018-08-17T18:51:51.525Z,26.90
2018-08-17T18:54:21.668Z,26.80
2018-08-17T18:56:51.063Z,26.70
2018-08-17T18:59:20.568Z,26.60
2018-08-17T19:01:50.017Z,26.70
2018-08-17T19:04:19.430Z,26.50
2018-08-17T19:06:48.849Z,26.50
2018-08-17T19:09:18.298Z,26.40
2018-08-17T19:11:47.735Z,26.40
2018-08-17T19:14:17.079Z,26.50
2018-08-17T19:16:46.606Z,26.30
2018-08-17T19:19:15.967Z,26.30
2018-08-17T19:21:45.417Z,26.30
2018-08-17T19:24:14.821Z,26.30
2018-08-17T19:26:44.231Z,26.20
2018-08-17T19:29:13.622Z,26.10
2018-08-17T19:31:50.012Z,26.00
2018-08-17T19:34:19.635Z,26.00
2018-08-17T19:36:49.013Z,25.80
2018-08-17T19:39:21.919Z,25.70
2018-08-17T19:41:51.370Z,25.70
2018-08-17T19:44:20.734Z,25.70
2018-08-17T19:46:50.160Z,25.60
2018-08-17T19:49:19.535Z,25.60
2018-08-17T19:51:48.927Z,25.60
2018-08-17T19:54:18.423Z,25.60
2018-08-17T19:56:47.796Z,25.60
2018-08-17T19:59:17.151Z,25.60
2018-08-17T20:01:46.506Z,25.50
2018-08-17T20:04:15.916Z,25.40
2018-08-17T20:06:45.227Z,25.40
2018-08-17T20:09:15.167Z,25.30
2018-08-17T20:11:53.719Z,25.20
2018-08-17T20:14:23.679Z,25.20
2018-08-17T20:16:53.200Z,25.20
2018-08-17T20:19:23.695Z,25.10
2018-08-17T20:21:53.076Z,25.10
2018-08-17T20:24:22.500Z,25.20
2018-08-17T20:26:53.642Z,25.10
2018-08-17T20:29:22.998Z,25.00
2018-08-17T20:31:52.380Z,24.90
2018-08-17T20:34:21.739Z,24.80
2018-08-17T20:36:51.192Z,24.80
2018-08-17T20:39:21.670Z,24.70
2018-08-17T20:41:51.131Z,24.70
2018-08-17T20:44:20.546Z,24.60
2018-08-17T20:46:53.882Z,24.60
2018-08-17T20:49:23.374Z,24.50
2018-08-17T20:51:58.866Z,24.50
2018-08-17T20:54:29.405Z,24.40
2018-08-17T20:56:59.260Z,24.30
2018-08-17T20:59:28.748Z,24.30
2018-08-17T21:01:58.760Z,24.20
2018-08-17T21:04:28.315Z,24.20
2018-08-17T21:06:57.811Z,24.10
2018-08-17T21:09:27.246Z,24.00
2018-08-17T21:11:56.674Z,24.00
2018-08-17T21:14:26.098Z,24.00
2018-08-17T21:16:55.535Z,23.90
2018-08-17T21:19:30.780Z,23.90
2018-08-17T21:22:00.366Z,23.90
2018-08-17T21:24:29.826Z,23.90
2018-08-17T21:26:59.248Z,23.90
2018-08-17T21:29:28.967Z,23.80
2018-08-17T21:31:59.376Z,23.80
2018-08-17T21:34:28.782Z,23.80
2018-08-17T21:36:58.179Z,23.70
2018-08-17T21:39:27.654Z,23.70
2018-08-17T21:41:57.196Z,23.80
2018-08-17T21:44:26.573Z,23.80
2018-08-17T21:47:02.739Z,23.60
2018-08-17T21:49:32.225Z,23.60
2018-08-17T21:52:05.317Z,23.60
2018-08-17T21:54:35.222Z,23.60
2018-08-17T21:57:05.126Z,23.60
2018-08-17T22:00:04.797Z,23.60
2018-08-17T22:02:34.341Z,23.60
2018-08-17T22:05:03.862Z,23.60
2018-08-17T22:07:33.370Z,23.60
2018-08-17T22:10:02.791Z,23.60
2018-08-17T22:12:32.239Z,23.70
2018-08-17T22:15:01.638Z,23.70
2018-08-17T22:17:36.703Z,23.60
2018-08-17T22:20:09.095Z,23.60
2018-08-17T22:22:38.614Z,23.60
2018-08-17T22:25:17.230Z,23.60
2018-08-17T22:27:49.215Z,23.50
2018-08-17T22:30:22.812Z,23.40
2018-08-17T22:32:52.381Z,23.50
2018-08-17T22:35:21.925Z,23.50
2018-08-17T22:37:51.317Z,23.50
2018-08-17T22:40:20.796Z,23.40
2018-08-17T22:42:51.017Z,23.40
2018-08-17T22:45:20.499Z,23.40
2018-08-17T22:47:49.978Z,23.40
2018-08-17T22:50:19.476Z,23.30
2018-08-17T22:52:48.914Z,23.30
2018-08-17T22:55:18.324Z,23.30
2018-08-17T22:57:47.771Z,23.30
2018-08-17T23:00:25.171Z,23.30
2018-08-17T23:02:56.670Z,23.30
2018-08-17T23:05:27.753Z,23.30
2018-08-17T23:07:57.261Z,23.20
2018-08-17T23:10:27.662Z,23.10
2018-08-17T23:12:57.420Z,23.00
2018-08-17T23:15:26.854Z,23.00
2018-08-17T23:18:00.186Z,22.90
2018-08-17T23:20:36.842Z,22.80
2018-08-17T23:23:07.116Z,22.70
2018-08-17T23:25:36.569Z,22.70
2018-08-17T23:28:06.046Z,22.60
2018-08-17T23:30:35.506Z,22.50
2018-08-17T23:33:04.995Z,22.50
2018-08-17T23:35:34.449Z,22.40
2018-08-17T23:38:03.969Z,22.20
2018-08-17T23:40:33.444Z,21.80
2018-08-17T23:43:02.863Z,21.50
2018-08-17T23:45:32.308Z,21.40
2018-08-17T23:48:01.797Z,21.30
2018-08-17T23:50:31.237Z,21.20
2018-08-17T23:53:00.735Z,21.10
2018-08-17T23:55:30.247Z,21.00
2018-08-17T23:57:59.661Z,21.10
